Etusivu
METAR-TAF:

METAR-TAF

Lentoasemat :

Mannheim, Saksa

Leveyspiiri: 49-28-21N, Pituuspiiri: 008-30-56E, korkeus merenpinnasta: 100 m

Tämänhetkinen sää

Tämä raportti tehtiin 6 tuntia ja 40 minuuttia sitten, kello 19.20 UTC
Tuuli 9 kn lännestä
Lämpötila 5°C
Kosteus 75%
Ilmanpaine 1023 hPa
Näkyvyys 10 km tai enemmän
Muutamia pilviä 3000 ft:n korkeudessa
Hajanaisia pilviä 9300 ft:n korkeudessa

METAR: EDFM 101920Z 28009KT 9999 FEW030 SCT093 05/01 Q1023

Aika: 03:00 (02:00 UTC)

Sääennuste

Tämä raportti tehtiin 9 tuntia ja 0 minuuttia sitten, kello 17.00 UTC
Ennuste voimassa 10. päivästä klo 18 UTC - 10. päivään klo 21 UTC
Tuuli 7 kn lännestä
Näkyvyys 10 km tai enemmän
Hajanaisia pilviä 4000 ft:n korkeudessa
Todennäköisyys 30% :
Ajoittain
10. päivästä klo 18 UTC - 10. päivään klo 20 UTC
Hajonneita pilviä 2500 ft:n korkeudessa, Kasvava cumulus-pilvi.
vesikuuroja

TAF: EDFM 101700Z 1018/1021 27007KT 9999 SCT040 PROB30 TEMPO 1018/1020 SHRA BKN025TCU

Säähavainnot ja -ennusteet yli 4000 lentoasemalta (METAR- ja TAF-raportit).

Käytössä olevat sääasemat on merkitty karttaan keltaisilla ja punaisilla pisteillä.

Aseta hiiri pisteen päälle nähdäksesi sääaseman nimen.

Klikkaa sitten nähdäksesi säähavainnot ja -ennusteet.

Kartan vaihtaminen: klikkaa mustalla rastilla varustettuja vihreitä pisteitä, niin voit zoomata sisään; viivalla varustettua vihreää pistettä, niin voit zoomata ulos tai vihreitä nuolia, niin pääset viereisille kartoille.


METAR-TAF: